createdAt,value
2019-03-29T16:10:14.874Z,2.68
2019-03-29T16:11:17.344Z,3.97
2019-03-29T16:12:14.951Z,2.51
2019-03-29T16:13:14.804Z,3.16
2019-03-29T16:14:15.023Z,2.29
2019-03-29T16:15:14.817Z,3.99
2019-03-29T16:16:14.856Z,3.65
2019-03-29T16:17:14.883Z,3.02
2019-03-29T16:18:14.865Z,2.88
2019-03-29T16:19:14.817Z,3.78
2019-03-29T16:20:15.444Z,1.84
2019-03-29T16:21:14.880Z,1.89
2019-03-29T16:22:15.027Z,2.83
2019-03-29T16:23:15.051Z,1.92
2019-03-29T16:24:16.081Z,1.98
2019-03-29T16:25:15.054Z,1.88
2019-03-29T16:26:14.940Z,2.77
2019-03-29T16:27:14.986Z,1.91
2019-03-29T16:28:14.955Z,1.11
2019-03-29T16:29:14.980Z,3.39
2019-03-29T16:30:14.926Z,2.12
2019-03-29T16:31:14.871Z,2.92
2019-03-29T16:32:15.041Z,2.90
2019-03-29T16:33:15.973Z,2.27
2019-03-29T16:34:14.970Z,2.68
2019-03-29T16:35:15.145Z,2.86
2019-03-29T16:36:15.043Z,2.42
2019-03-29T16:37:16.568Z,2.21
2019-03-29T16:38:15.195Z,2.40
2019-03-29T16:39:15.056Z,1.87
2019-03-29T16:40:17.434Z,2.35
2019-03-29T16:41:15.012Z,1.11
2019-03-29T16:42:14.915Z,2.06
2019-03-29T16:43:15.027Z,1.71
2019-03-29T16:44:15.379Z,1.24
2019-03-29T16:45:15.092Z,3.70
2019-03-29T16:46:15.092Z,2.71
2019-03-29T16:47:15.003Z,1.92
2019-03-29T16:48:15.344Z,2.45
2019-03-29T16:49:15.118Z,2.48
2019-03-29T16:50:15.010Z,1.82
2019-03-29T16:51:14.983Z,2.34
2019-03-29T16:52:15.074Z,3.47
2019-03-29T16:53:15.072Z,2.28
2019-03-29T16:54:15.071Z,3.61
2019-03-29T16:55:15.148Z,1.63
2019-03-29T16:56:15.217Z,1.70
2019-03-29T16:57:14.981Z,2.57
2019-03-29T16:58:15.297Z,3.20
2019-03-29T16:59:14.896Z,3.81
2019-03-29T17:00:15.340Z,2.66
2019-03-29T17:01:14.969Z,3.08
2019-03-29T17:02:15.125Z,3.45
2019-03-29T17:03:15.178Z,2.42
2019-03-29T17:04:15.041Z,3.95
2019-03-29T17:05:15.321Z,3.33
2019-03-29T17:06:15.276Z,3.13
2019-03-29T17:07:15.091Z,2.74
2019-03-29T17:08:15.113Z,2.49
2019-03-29T17:09:15.157Z,3.03
2019-03-29T17:10:15.128Z,3.16
2019-03-29T17:11:15.141Z,1.89
2019-03-29T17:12:15.054Z,2.73
2019-03-29T17:13:14.987Z,2.29
2019-03-29T17:14:15.040Z,1.51
2019-03-29T17:15:15.476Z,2.54
2019-03-29T17:16:14.921Z,2.44
2019-03-29T17:17:15.222Z,3.08
2019-03-29T17:18:28.569Z,2.88
2019-03-29T17:19:15.304Z,3.01
2019-03-29T17:20:14.916Z,3.40
2019-03-29T17:21:15.111Z,2.43
2019-03-29T17:22:15.047Z,2.37
2019-03-29T17:23:15.387Z,1.63
2019-03-29T17:24:14.966Z,2.27
2019-03-29T17:25:14.965Z,2.45
2019-03-29T17:26:15.110Z,1.76
2019-03-29T17:27:15.017Z,1.69
2019-03-29T17:28:15.332Z,2.56
2019-03-29T17:29:14.991Z,1.46
2019-03-29T17:30:15.011Z,1.25
2019-03-29T17:31:15.080Z,2.14
2019-03-29T17:32:14.971Z,1.43
2019-03-29T17:33:15.204Z,1.10
2019-03-29T17:34:15.067Z,1.31
2019-03-29T17:35:15.083Z,1.56
2019-03-29T17:36:15.196Z,1.48
2019-03-29T17:37:15.090Z,2.60
2019-03-29T17:38:15.048Z,1.59
2019-03-29T17:39:15.095Z,2.37
2019-03-29T17:40:15.021Z,1.81
2019-03-29T17:41:15.070Z,2.05
2019-03-29T17:42:15.077Z,1.73
2019-03-29T17:43:15.344Z,2.13
2019-03-29T17:44:15.143Z,1.51
2019-03-29T17:45:15.051Z,1.69
2019-03-29T17:46:16.286Z,1.14
2019-03-29T17:47:15.134Z,1.44
2019-03-29T17:48:15.069Z,2.54
2019-03-29T17:49:15.203Z,0.84
2019-03-29T17:50:15.218Z,1.47
2019-03-29T17:51:14.999Z,1.55
2019-03-29T17:52:15.182Z,2.17
2019-03-29T17:53:15.121Z,2.47
2019-03-29T17:54:14.996Z,1.58
2019-03-29T17:55:15.078Z,0.75
2019-03-29T17:56:15.021Z,0.80
2019-03-29T17:57:15.265Z,0.68
2019-03-29T17:58:15.108Z,1.57
2019-03-29T17:59:15.034Z,1.65
2019-03-29T18:00:15.084Z,1.32
2019-03-29T18:01:17.746Z,0.81
2019-03-29T18:02:15.113Z,1.28
2019-03-29T18:03:15.121Z,1.44
2019-03-29T18:04:15.120Z,1.02
2019-03-29T18:05:15.420Z,0.78
2019-03-29T18:06:15.120Z,1.73
2019-03-29T18:07:15.322Z,0.97
2019-03-29T18:08:15.129Z,1.85
2019-03-29T18:09:15.215Z,1.15
2019-03-29T18:10:14.988Z,1.75
2019-03-29T18:11:15.216Z,2.29
2019-03-29T18:12:15.409Z,2.45
2019-03-29T18:13:15.188Z,1.09
2019-03-29T18:14:15.095Z,0.54
2019-03-29T18:15:15.047Z,0.70
2019-03-29T18:16:29.580Z,0.71
2019-03-29T18:17:15.290Z,0.37
2019-03-29T18:18:15.232Z,0.22
2019-03-29T18:19:15.000Z,0.28
2019-03-29T18:20:15.102Z,0.11
2019-03-29T18:21:14.994Z,0.53
2019-03-29T18:22:15.204Z,0.31
2019-03-29T18:23:15.293Z,0.84
2019-03-29T18:24:15.130Z,0.63
2019-03-29T18:25:15.179Z,0.48
2019-03-29T18:26:15.035Z,0.88
2019-03-29T18:27:15.254Z,0.28
2019-03-29T18:28:15.070Z,0.27
2019-03-29T18:29:15.198Z,0.34
2019-03-29T18:30:14.986Z,0.48
2019-03-29T18:31:15.095Z,0.35
2019-03-29T18:32:15.176Z,0.20
2019-03-29T18:33:15.183Z,0.05
2019-03-29T18:34:16.134Z,0.70
2019-03-29T18:35:15.001Z,0.44
2019-03-29T18:36:15.262Z,0.12
2019-03-29T18:37:15.471Z,1.05
2019-03-29T18:38:15.209Z,0.11
2019-03-29T18:39:15.150Z,0.36
2019-03-29T18:40:15.201Z,0.98
2019-03-29T18:41:15.177Z,0.00
2019-03-29T18:42:15.207Z,0.27
2019-03-29T18:43:15.205Z,0.29
2019-03-29T18:44:15.221Z,0.56
2019-03-29T18:45:15.182Z,0.21
2019-03-29T18:46:15.304Z,0.14
2019-03-29T18:47:15.331Z,0.00
2019-03-29T18:48:15.128Z,0.00
2019-03-29T18:49:15.326Z,0.36
2019-03-29T18:50:15.339Z,0.33
2019-03-29T18:51:15.204Z,0.46
2019-03-29T18:52:15.343Z,0.06
2019-03-29T18:53:15.267Z,0.68
2019-03-29T18:54:15.365Z,0.30
2019-03-29T18:55:15.222Z,0.01
2019-03-29T18:56:15.422Z,0.35
2019-03-29T18:57:15.331Z,0.12
2019-03-29T18:58:15.655Z,0.83
2019-03-29T18:59:15.401Z,0.99
2019-03-29T19:00:15.378Z,0.74
2019-03-29T19:01:15.470Z,0.43
2019-03-29T19:02:15.680Z,0.07
2019-03-29T19:03:18.040Z,0.61
2019-03-29T19:04:15.518Z,0.07
2019-03-29T19:05:15.544Z,0.01
2019-03-29T19:06:15.326Z,0.14
2019-03-29T19:07:15.669Z,0.30
2019-03-29T19:08:15.415Z,0.27
2019-03-29T19:09:15.466Z,1.04
2019-03-29T19:10:15.522Z,1.01
2019-03-29T19:11:15.367Z,0.51
2019-03-29T19:12:15.364Z,0.67
2019-03-29T19:13:15.554Z,0.90
2019-03-29T19:14:15.434Z,0.40
2019-03-29T19:15:15.390Z,0.01
2019-03-29T19:16:15.487Z,0.17
2019-03-29T19:17:15.611Z,0.23
2019-03-29T19:18:16.605Z,0.09
2019-03-29T19:19:15.471Z,0.21
2019-03-29T19:20:26.563Z,0.00
2019-03-29T19:21:15.439Z,0.28
2019-03-29T19:22:15.732Z,0.00
2019-03-29T19:23:15.475Z,0.00
2019-03-29T19:24:15.469Z,0.00
2019-03-29T19:25:15.511Z,0.21
2019-03-29T19:26:15.454Z,0.18
2019-03-29T19:27:15.565Z,0.05
2019-03-29T19:28:15.633Z,0.02
2019-03-29T19:29:15.665Z,0.00
2019-03-29T19:30:15.494Z,0.02
2019-03-29T19:31:15.576Z,0.00
2019-03-29T19:32:15.441Z,0.00
2019-03-29T19:33:15.690Z,0.00
2019-03-29T19:34:15.534Z,0.00
2019-03-29T19:35:15.536Z,0.00
2019-03-29T19:36:15.470Z,0.00
2019-03-29T19:37:18.222Z,0.26
2019-03-29T19:38:15.589Z,0.01
2019-03-29T19:39:15.651Z,0.08
2019-03-29T19:40:15.786Z,0.15
2019-03-29T19:41:15.454Z,0.04
2019-03-29T19:42:16.834Z,0.52
2019-03-29T19:43:15.452Z,0.63
2019-03-29T19:44:15.474Z,0.08
2019-03-29T19:45:15.442Z,0.33
2019-03-29T19:46:15.652Z,0.64
2019-03-29T19:47:15.532Z,0.72
2019-03-29T19:48:15.460Z,0.41
2019-03-29T19:49:15.533Z,0.54
2019-03-29T19:50:15.682Z,0.03
2019-03-29T19:51:15.646Z,0.03
2019-03-29T19:52:15.613Z,0.49
2019-03-29T19:53:15.595Z,0.13
2019-03-29T19:54:15.431Z,0.62
2019-03-29T19:55:15.466Z,0.30
2019-03-29T19:56:15.770Z,0.17
2019-03-29T19:57:15.568Z,0.01
2019-03-29T19:58:15.504Z,0.00
2019-03-29T19:59:15.507Z,0.00
2019-03-29T20:00:15.495Z,0.00
2019-03-29T20:01:15.706Z,0.01
2019-03-29T20:02:15.648Z,0.00
2019-03-29T20:03:15.649Z,0.03
2019-03-29T20:04:15.508Z,0.00
2019-03-29T20:05:15.738Z,0.02
2019-03-29T20:06:15.638Z,0.31
2019-03-29T20:07:15.478Z,0.31
2019-03-29T20:08:15.755Z,0.00
2019-03-29T20:09:15.553Z,0.62
2019-03-29T20:10:15.481Z,0.79
2019-03-29T20:11:15.999Z,0.00
2019-03-29T20:12:15.679Z,0.17
2019-03-29T20:13:15.876Z,0.25
2019-03-29T20:14:15.604Z,0.65
2019-03-29T20:15:15.722Z,0.19
2019-03-29T20:16:15.498Z,0.34
2019-03-29T20:17:27.004Z,0.87
2019-03-29T20:18:15.508Z,0.13
2019-03-29T20:19:15.514Z,0.31
2019-03-29T20:20:15.530Z,0.02
2019-03-29T20:21:15.477Z,0.16
2019-03-29T20:22:16.290Z,0.00
2019-03-29T20:23:15.674Z,0.06
2019-03-29T20:24:15.606Z,0.03
2019-03-29T20:25:15.497Z,0.01
2019-03-29T20:26:15.750Z,0.17
2019-03-29T20:27:15.540Z,0.00
2019-03-29T20:28:15.639Z,0.00
2019-03-29T20:29:15.482Z,0.33
2019-03-29T20:30:17.812Z,0.38
2019-03-29T20:31:15.469Z,0.22
2019-03-29T20:32:15.671Z,0.22
2019-03-29T20:33:15.648Z,0.00
2019-03-29T20:34:15.611Z,0.00
2019-03-29T20:35:15.727Z,0.71
2019-03-29T20:36:22.773Z,0.99
2019-03-29T20:37:15.715Z,1.17
2019-03-29T20:38:15.525Z,1.04
2019-03-29T20:39:15.593Z,1.22
2019-03-29T20:40:15.556Z,0.35
2019-03-29T20:41:15.604Z,0.21
2019-03-29T20:42:15.624Z,0.58
2019-03-29T20:43:15.549Z,0.66
2019-03-29T20:44:15.580Z,0.17
2019-03-29T20:45:15.838Z,0.45
2019-03-29T20:46:15.765Z,0.22
2019-03-29T20:47:15.957Z,0.07
2019-03-29T20:48:15.759Z,0.63
2019-03-29T20:49:15.865Z,0.31
2019-03-29T20:50:15.607Z,0.40
2019-03-29T20:51:15.576Z,1.03
2019-03-29T20:52:16.090Z,0.65
2019-03-29T20:53:15.590Z,1.22
2019-03-29T20:54:15.792Z,1.54
2019-03-29T20:55:15.708Z,1.22
2019-03-29T20:56:16.162Z,1.20
2019-03-29T20:57:15.665Z,0.35
2019-03-29T20:58:15.729Z,0.90
2019-03-29T20:59:16.673Z,0.92
2019-03-29T21:00:15.738Z,0.90
2019-03-29T21:01:15.595Z,1.26
2019-03-29T21:02:15.622Z,0.95
2019-03-29T21:03:15.683Z,0.78
2019-03-29T21:04:15.873Z,1.09
2019-03-29T21:05:16.015Z,0.75
2019-03-29T21:06:15.644Z,1.75
2019-03-29T21:07:15.677Z,1.19
2019-03-29T21:08:15.877Z,1.64
2019-03-29T21:09:15.956Z,2.06
2019-03-29T21:10:15.621Z,2.47
2019-03-29T21:11:16.598Z,2.13
2019-03-29T21:12:15.730Z,2.08
2019-03-29T21:13:15.650Z,1.97
2019-03-29T21:14:15.652Z,1.59
2019-03-29T21:15:15.639Z,1.88
2019-03-29T21:16:15.628Z,1.79
2019-03-29T21:17:15.684Z,2.04
2019-03-29T21:18:17.427Z,1.55
2019-03-29T21:19:15.975Z,1.88
2019-03-29T21:20:15.744Z,1.32
2019-03-29T21:21:15.657Z,0.94
2019-03-29T21:22:15.753Z,1.42
2019-03-29T21:23:15.732Z,0.94
2019-03-29T21:24:15.693Z,1.30
2019-03-29T21:25:15.715Z,0.71
2019-03-29T21:26:16.027Z,1.09
2019-03-29T21:27:15.763Z,1.19
2019-03-29T21:28:15.808Z,0.67
2019-03-29T21:29:18.214Z,1.10
2019-03-29T21:30:15.980Z,0.65
2019-03-29T21:31:15.734Z,0.86
2019-03-29T21:32:16.310Z,0.96
2019-03-29T21:33:15.931Z,1.08
2019-03-29T21:34:15.648Z,0.77
2019-03-29T21:35:15.708Z,0.73
2019-03-29T21:36:18.108Z,0.48
2019-03-29T21:37:15.702Z,0.28
2019-03-29T21:38:15.792Z,0.45
2019-03-29T21:39:15.829Z,0.91
2019-03-29T21:40:15.688Z,0.37
2019-03-29T21:41:15.848Z,0.35
2019-03-29T21:42:15.858Z,1.19
2019-03-29T21:43:15.795Z,0.77
2019-03-29T21:44:16.838Z,1.19
2019-03-29T21:45:28.107Z,0.94
2019-03-29T21:46:15.754Z,0.60
2019-03-29T21:47:17.691Z,0.89
2019-03-29T21:48:27.253Z,1.15
2019-03-29T21:49:15.882Z,0.96
2019-03-29T21:50:15.662Z,1.59
2019-03-29T21:51:18.208Z,1.82
2019-03-29T21:52:15.959Z,1.78
2019-03-29T21:53:15.726Z,1.91
2019-03-29T21:54:15.676Z,1.76
2019-03-29T21:55:15.889Z,1.37
2019-03-29T21:56:16.027Z,1.95
2019-03-29T21:57:15.868Z,1.52
2019-03-29T21:58:16.417Z,1.63
2019-03-29T21:59:15.759Z,1.82
2019-03-29T22:00:15.720Z,1.67
